sensor_id;sensor_type;location;lat;lon;timestamp;P1;durP1;ratioP1;P2;durP2;ratioP2
80320;SDS011;69633;47.066;15.450;2024-03-07T00:02:10;12.57;;;5.60;;
80320;SDS011;69633;47.066;15.450;2024-03-07T00:04:36;11.23;;;4.30;;
80320;SDS011;69633;47.066;15.450;2024-03-07T00:07:02;12.50;;;4.57;;
80320;SDS011;69633;47.066;15.450;2024-03-07T00:09:37;9.18;;;4.00;;
80320;SDS011;69633;47.066;15.450;2024-03-07T00:12:03;8.60;;;4.05;;
80320;SDS011;69633;47.066;15.450;2024-03-07T00:14:31;11.25;;;4.90;;
80320;SDS011;69633;47.066;15.450;2024-03-07T00:16:57;9.10;;;3.95;;
80320;SDS011;69633;47.066;15.450;2024-03-07T00:19:24;10.90;;;4.43;;
80320;SDS011;69633;47.066;15.450;2024-03-07T00:21:57;9.73;;;4.18;;
80320;SDS011;69633;47.066;15.450;2024-03-07T00:24:26;10.98;;;3.92;;
80320;SDS011;69633;47.066;15.450;2024-03-07T00:26:54;11.70;;;4.35;;
80320;SDS011;69633;47.066;15.450;2024-03-07T00:29:22;11.00;;;4.50;;
80320;SDS011;69633;47.066;15.450;2024-03-07T00:31:49;9.70;;;4.30;;
80320;SDS011;69633;47.066;15.450;2024-03-07T00:34:15;9.70;;;4.65;;
80320;SDS011;69633;47.066;15.450;2024-03-07T00:36:45;11.88;;;5.13;;
80320;SDS011;69633;47.066;15.450;2024-03-07T00:39:11;12.93;;;4.57;;
80320;SDS011;69633;47.066;15.450;2024-03-07T00:41:41;12.95;;;4.15;;
80320;SDS011;69633;47.066;15.450;2024-03-07T00:44:08;11.88;;;4.70;;
80320;SDS011;69633;47.066;15.450;2024-03-07T00:46:36;9.40;;;4.10;;
80320;SDS011;69633;47.066;15.450;2024-03-07T00:49:04;10.63;;;4.65;;
80320;SDS011;69633;47.066;15.450;2024-03-07T00:51:30;11.60;;;5.50;;
80320;SDS011;69633;47.066;15.450;2024-03-07T00:53:57;10.77;;;5.15;;
80320;SDS011;69633;47.066;15.450;2024-03-07T00:56:23;11.68;;;4.68;;
80320;SDS011;69633;47.066;15.450;2024-03-07T00:58:49;11.18;;;4.93;;
80320;SDS011;69633;47.066;15.450;2024-03-07T01:01:15;12.05;;;4.63;;
80320;SDS011;69633;47.066;15.450;2024-03-07T01:03:42;12.15;;;5.72;;
80320;SDS011;69633;47.066;15.450;2024-03-07T01:06:08;14.25;;;5.20;;
80320;SDS011;69633;47.066;15.450;2024-03-07T01:08:35;11.20;;;5.03;;
80320;SDS011;69633;47.066;15.450;2024-03-07T01:11:04;10.63;;;4.50;;
80320;SDS011;69633;47.066;15.450;2024-03-07T01:13:40;12.90;;;5.28;;
80320;SDS011;69633;47.066;15.450;2024-03-07T01:16:08;12.73;;;5.10;;
80320;SDS011;69633;47.066;15.450;2024-03-07T01:18:35;7.93;;;4.15;;
80320;SDS011;69633;47.066;15.450;2024-03-07T01:21:00;13.60;;;5.43;;
80320;SDS011;69633;47.066;15.450;2024-03-07T01:23:27;9.45;;;4.25;;
80320;SDS011;69633;47.066;15.450;2024-03-07T01:25:56;11.27;;;5.05;;
80320;SDS011;69633;47.066;15.450;2024-03-07T01:28:22;13.13;;;5.90;;
80320;SDS011;69633;47.066;15.450;2024-03-07T01:30:48;14.82;;;5.95;;
80320;SDS011;69633;47.066;15.450;2024-03-07T01:33:19;14.00;;;5.28;;
80320;SDS011;69633;47.066;15.450;2024-03-07T01:35:44;11.82;;;5.38;;
80320;SDS011;69633;47.066;15.450;2024-03-07T01:38:11;11.65;;;4.75;;
80320;SDS011;69633;47.066;15.450;2024-03-07T01:40:39;14.50;;;5.88;;
80320;SDS011;69633;47.066;15.450;2024-03-07T01:43:05;14.52;;;5.45;;
80320;SDS011;69633;47.066;15.450;2024-03-07T01:45:31;14.38;;;5.63;;
80320;SDS011;69633;47.066;15.450;2024-03-07T01:47:58;12.35;;;5.20;;
80320;SDS011;69633;47.066;15.450;2024-03-07T01:50:24;10.95;;;5.05;;
80320;SDS011;69633;47.066;15.450;2024-03-07T01:52:51;12.68;;;4.68;;
80320;SDS011;69633;47.066;15.450;2024-03-07T01:55:20;11.90;;;4.88;;
80320;SDS011;69633;47.066;15.450;2024-03-07T01:57:47;12.40;;;5.03;;
80320;SDS011;69633;47.066;15.450;2024-03-07T02:00:14;13.43;;;5.03;;
80320;SDS011;69633;47.066;15.450;2024-03-07T02:02:40;14.73;;;6.00;;
80320;SDS011;69633;47.066;15.450;2024-03-07T02:05:06;13.55;;;5.82;;
80320;SDS011;69633;47.066;15.450;2024-03-07T02:07:31;15.55;;;6.25;;
80320;SDS011;69633;47.066;15.450;2024-03-07T02:10:00;11.85;;;4.95;;
80320;SDS011;69633;47.066;15.450;2024-03-07T02:12:27;14.55;;;5.03;;
80320;SDS011;69633;47.066;15.450;2024-03-07T02:14:56;9.77;;;4.35;;
80320;SDS011;69633;47.066;15.450;2024-03-07T02:17:26;11.60;;;4.70;;
80320;SDS011;69633;47.066;15.450;2024-03-07T02:19:52;10.93;;;5.00;;
80320;SDS011;69633;47.066;15.450;2024-03-07T02:22:18;13.02;;;4.70;;
80320;SDS011;69633;47.066;15.450;2024-03-07T02:24:44;10.73;;;5.35;;
80320;SDS011;69633;47.066;15.450;2024-03-07T02:27:12;17.10;;;5.90;;
80320;SDS011;69633;47.066;15.450;2024-03-07T02:29:39;11.80;;;4.72;;
80320;SDS011;69633;47.066;15.450;2024-03-07T02:32:07;12.48;;;4.70;;
80320;SDS011;69633;47.066;15.450;2024-03-07T02:34:33;12.43;;;5.15;;
80320;SDS011;69633;47.066;15.450;2024-03-07T02:36:59;13.45;;;5.10;;
80320;SDS011;69633;47.066;15.450;2024-03-07T02:39:24;12.20;;;4.93;;
80320;SDS011;69633;47.066;15.450;2024-03-07T02:41:50;11.07;;;4.72;;
80320;SDS011;69633;47.066;15.450;2024-03-07T02:44:16;13.48;;;5.15;;
80320;SDS011;69633;47.066;15.450;2024-03-07T02:46:41;8.93;;;4.32;;
80320;SDS011;69633;47.066;15.450;2024-03-07T02:49:07;16.10;;;5.13;;
80320;SDS011;69633;47.066;15.450;2024-03-07T02:51:33;10.27;;;4.75;;
80320;SDS011;69633;47.066;15.450;2024-03-07T02:53:59;10.95;;;4.47;;
80320;SDS011;69633;47.066;15.450;2024-03-07T02:56:25;10.15;;;4.32;;
80320;SDS011;69633;47.066;15.450;2024-03-07T02:58:50;11.27;;;4.57;;
80320;SDS011;69633;47.066;15.450;2024-03-07T03:01:18;11.23;;;3.90;;
80320;SDS011;69633;47.066;15.450;2024-03-07T03:03:45;11.48;;;4.90;;
80320;SDS011;69633;47.066;15.450;2024-03-07T03:06:13;12.77;;;4.15;;
80320;SDS011;69633;47.066;15.450;2024-03-07T03:08:38;10.05;;;4.28;;
80320;SDS011;69633;47.066;15.450;2024-03-07T03:11:03;13.75;;;4.75;;
80320;SDS011;69633;47.066;15.450;2024-03-07T03:13:30;7.82;;;4.32;;
80320;SDS011;69633;47.066;15.450;2024-03-07T03:15:57;15.65;;;5.40;;
80320;SDS011;69633;47.066;15.450;2024-03-07T03:18:23;15.30;;;4.72;;
80320;SDS011;69633;47.066;15.450;2024-03-07T03:20:49;10.30;;;4.13;;
80320;SDS011;69633;47.066;15.450;2024-03-07T03:23:15;11.07;;;4.28;;
80320;SDS011;69633;47.066;15.450;2024-03-07T03:25:41;11.00;;;4.45;;
80320;SDS011;69633;47.066;15.450;2024-03-07T03:28:07;9.23;;;4.45;;
80320;SDS011;69633;47.066;15.450;2024-03-07T03:30:39;11.73;;;4.75;;
80320;SDS011;69633;47.066;15.450;2024-03-07T03:33:10;11.77;;;4.93;;
80320;SDS011;69633;47.066;15.450;2024-03-07T03:35:36;10.77;;;4.70;;
80320;SDS011;69633;47.066;15.450;2024-03-07T03:38:02;12.10;;;4.88;;
80320;SDS011;69633;47.066;15.450;2024-03-07T03:40:28;9.88;;;4.05;;
80320;SDS011;69633;47.066;15.450;2024-03-07T03:42:54;10.45;;;4.72;;
80320;SDS011;69633;47.066;15.450;2024-03-07T03:45:20;10.55;;;4.60;;
80320;SDS011;69633;47.066;15.450;2024-03-07T03:47:46;11.57;;;4.18;;
80320;SDS011;69633;47.066;15.450;2024-03-07T03:50:12;11.60;;;4.47;;
80320;SDS011;69633;47.066;15.450;2024-03-07T03:52:39;10.55;;;4.85;;
80320;SDS011;69633;47.066;15.450;2024-03-07T03:55:06;10.88;;;4.40;;
80320;SDS011;69633;47.066;15.450;2024-03-07T03:57:32;13.63;;;4.70;;
80320;SDS011;69633;47.066;15.450;2024-03-07T03:59:58;12.68;;;4.28;;
80320;SDS011;69633;47.066;15.450;2024-03-07T04:02:25;10.20;;;5.07;;
80320;SDS011;69633;47.066;15.450;2024-03-07T04:04:52;10.45;;;4.30;;
80320;SDS011;69633;47.066;15.450;2024-03-07T04:07:18;8.18;;;3.78;;
80320;SDS011;69633;47.066;15.450;2024-03-07T04:09:44;13.65;;;4.97;;
80320;SDS011;69633;47.066;15.450;2024-03-07T04:12:10;11.20;;;4.53;;
80320;SDS011;69633;47.066;15.450;2024-03-07T04:14:39;10.27;;;3.85;;
80320;SDS011;69633;47.066;15.450;2024-03-07T04:17:14;10.23;;;4.10;;
80320;SDS011;69633;47.066;15.450;2024-03-07T04:19:40;10.45;;;4.07;;
80320;SDS011;69633;47.066;15.450;2024-03-07T04:22:07;11.02;;;3.83;;
80320;SDS011;69633;47.066;15.450;2024-03-07T04:24:35;7.40;;;3.97;;
80320;SDS011;69633;47.066;15.450;2024-03-07T04:27:01;11.95;;;4.53;;
80320;SDS011;69633;47.066;15.450;2024-03-07T04:29:30;10.02;;;4.53;;
80320;SDS011;69633;47.066;15.450;2024-03-07T04:32:00;11.57;;;3.97;;
80320;SDS011;69633;47.066;15.450;2024-03-07T04:34:30;12.88;;;4.47;;
80320;SDS011;69633;47.066;15.450;2024-03-07T04:36:59;9.95;;;4.82;;
80320;SDS011;69633;47.066;15.450;2024-03-07T04:39:29;10.00;;;4.43;;
80320;SDS011;69633;47.066;15.450;2024-03-07T04:42:05;12.02;;;4.43;;
80320;SDS011;69633;47.066;15.450;2024-03-07T04:44:33;11.48;;;4.63;;
80320;SDS011;69633;47.066;15.450;2024-03-07T04:47:01;10.23;;;4.45;;
80320;SDS011;69633;47.066;15.450;2024-03-07T04:49:28;12.68;;;4.45;;
80320;SDS011;69633;47.066;15.450;2024-03-07T04:51:55;10.15;;;3.60;;
80320;SDS011;69633;47.066;15.450;2024-03-07T04:54:23;8.40;;;4.13;;
80320;SDS011;69633;47.066;15.450;2024-03-07T04:56:49;10.32;;;4.78;;
80320;SDS011;69633;47.066;15.450;2024-03-07T04:59:17;9.02;;;4.43;;
80320;SDS011;69633;47.066;15.450;2024-03-07T05:01:43;9.98;;;4.47;;
80320;SDS011;69633;47.066;15.450;2024-03-07T05:04:10;9.88;;;4.43;;
80320;SDS011;69633;47.066;15.450;2024-03-07T05:06:37;9.43;;;3.45;;
80320;SDS011;69633;47.066;15.450;2024-03-07T05:09:03;8.23;;;4.15;;
80320;SDS011;69633;47.066;15.450;2024-03-07T05:11:30;9.20;;;3.95;;
80320;SDS011;69633;47.066;15.450;2024-03-07T05:13:56;10.95;;;4.60;;
80320;SDS011;69633;47.066;15.450;2024-03-07T05:16:28;11.07;;;4.22;;
80320;SDS011;69633;47.066;15.450;2024-03-07T05:18:54;14.95;;;4.55;;
80320;SDS011;69633;47.066;15.450;2024-03-07T05:21:24;12.93;;;5.03;;
80320;SDS011;69633;47.066;15.450;2024-03-07T05:24:02;13.23;;;4.55;;
80320;SDS011;69633;47.066;15.450;2024-03-07T05:26:34;15.52;;;5.28;;
80320;SDS011;69633;47.066;15.450;2024-03-07T05:29:05;13.40;;;5.85;;
80320;SDS011;69633;47.066;15.450;2024-03-07T05:31:36;16.35;;;5.00;;
80320;SDS011;69633;47.066;15.450;2024-03-07T05:34:04;13.60;;;4.88;;
80320;SDS011;69633;47.066;15.450;2024-03-07T05:36:36;13.38;;;6.18;;
80320;SDS011;69633;47.066;15.450;2024-03-07T05:39:10;13.00;;;5.43;;
80320;SDS011;69633;47.066;15.450;2024-03-07T05:41:39;10.13;;;4.20;;
80320;SDS011;69633;47.066;15.450;2024-03-07T05:44:05;16.85;;;5.68;;
80320;SDS011;69633;47.066;15.450;2024-03-07T05:46:35;10.65;;;5.57;;
80320;SDS011;69633;47.066;15.450;2024-03-07T05:49:20;11.77;;;4.82;;
80320;SDS011;69633;47.066;15.450;2024-03-07T05:51:46;12.65;;;5.65;;
80320;SDS011;69633;47.066;15.450;2024-03-07T05:54:13;14.45;;;5.72;;
80320;SDS011;69633;47.066;15.450;2024-03-07T05:56:41;12.23;;;5.47;;
80320;SDS011;69633;47.066;15.450;2024-03-07T05:59:07;9.68;;;4.78;;
80320;SDS011;69633;47.066;15.450;2024-03-07T06:01:36;16.95;;;5.78;;
80320;SDS011;69633;47.066;15.450;2024-03-07T06:04:02;12.48;;;5.20;;
80320;SDS011;69633;47.066;15.450;2024-03-07T06:06:31;13.35;;;5.30;;
80320;SDS011;69633;47.066;15.450;2024-03-07T06:08:58;15.48;;;5.00;;
80320;SDS011;69633;47.066;15.450;2024-03-07T06:11:40;13.30;;;5.10;;
80320;SDS011;69633;47.066;15.450;2024-03-07T06:14:07;10.20;;;4.55;;
80320;SDS011;69633;47.066;15.450;2024-03-07T06:16:35;20.23;;;6.10;;
80320;SDS011;69633;47.066;15.450;2024-03-07T06:19:02;11.07;;;5.30;;
80320;SDS011;69633;47.066;15.450;2024-03-07T06:21:29;11.32;;;5.72;;
80320;SDS011;69633;47.066;15.450;2024-03-07T06:24:01;12.90;;;5.20;;
80320;SDS011;69633;47.066;15.450;2024-03-07T06:26:32;11.70;;;4.97;;
80320;SDS011;69633;47.066;15.450;2024-03-07T06:29:25;11.05;;;5.05;;
80320;SDS011;69633;47.066;15.450;2024-03-07T06:31:54;12.90;;;5.47;;
80320;SDS011;69633;47.066;15.450;2024-03-07T06:34:21;11.30;;;5.05;;
80320;SDS011;69633;47.066;15.450;2024-03-07T06:36:47;16.90;;;6.10;;
80320;SDS011;69633;47.066;15.450;2024-03-07T06:39:14;14.32;;;5.15;;
80320;SDS011;69633;47.066;15.450;2024-03-07T06:41:40;13.05;;;5.88;;
80320;SDS011;69633;47.066;15.450;2024-03-07T06:44:06;13.88;;;5.47;;
80320;SDS011;69633;47.066;15.450;2024-03-07T06:46:32;13.43;;;5.20;;
80320;SDS011;69633;47.066;15.450;2024-03-07T06:48:59;13.70;;;5.30;;
80320;SDS011;69633;47.066;15.450;2024-03-07T06:51:24;11.77;;;6.00;;
80320;SDS011;69633;47.066;15.450;2024-03-07T06:53:50;20.23;;;5.65;;
80320;SDS011;69633;47.066;15.450;2024-03-07T06:56:15;15.55;;;5.82;;
80320;SDS011;69633;47.066;15.450;2024-03-07T06:58:41;14.95;;;6.35;;
80320;SDS011;69633;47.066;15.450;2024-03-07T07:01:07;14.95;;;5.88;;
80320;SDS011;69633;47.066;15.450;2024-03-07T07:03:38;18.33;;;6.85;;
80320;SDS011;69633;47.066;15.450;2024-03-07T07:06:04;13.93;;;5.68;;
80320;SDS011;69633;47.066;15.450;2024-03-07T07:08:31;14.40;;;6.07;;
80320;SDS011;69633;47.066;15.450;2024-03-07T07:10:58;14.75;;;5.68;;
80320;SDS011;69633;47.066;15.450;2024-03-07T07:13:24;14.05;;;6.10;;
80320;SDS011;69633;47.066;15.450;2024-03-07T07:15:51;16.17;;;6.20;;
80320;SDS011;69633;47.066;15.450;2024-03-07T07:18:18;14.63;;;5.68;;
80320;SDS011;69633;47.066;15.450;2024-03-07T07:20:44;16.55;;;5.45;;
80320;SDS011;69633;47.066;15.450;2024-03-07T07:23:10;12.25;;;4.93;;
80320;SDS011;69633;47.066;15.450;2024-03-07T07:25:36;16.92;;;5.40;;
80320;SDS011;69633;47.066;15.450;2024-03-07T07:28:03;13.13;;;5.30;;
80320;SDS011;69633;47.066;15.450;2024-03-07T07:30:33;13.07;;;4.88;;
80320;SDS011;69633;47.066;15.450;2024-03-07T07:32:59;12.13;;;5.47;;
80320;SDS011;69633;47.066;15.450;2024-03-07T07:35:25;15.98;;;6.47;;
80320;SDS011;69633;47.066;15.450;2024-03-07T07:37:51;15.43;;;6.20;;
80320;SDS011;69633;47.066;15.450;2024-03-07T07:40:20;11.93;;;5.55;;
80320;SDS011;69633;47.066;15.450;2024-03-07T07:42:48;11.88;;;5.20;;
80320;SDS011;69633;47.066;15.450;2024-03-07T07:45:16;12.68;;;5.50;;
80320;SDS011;69633;47.066;15.450;2024-03-07T07:47:44;14.25;;;5.95;;
80320;SDS011;69633;47.066;15.450;2024-03-07T07:50:14;13.70;;;6.15;;
80320;SDS011;69633;47.066;15.450;2024-03-07T07:52:59;14.48;;;5.43;;
80320;SDS011;69633;47.066;15.450;2024-03-07T07:55:28;12.98;;;5.10;;
80320;SDS011;69633;47.066;15.450;2024-03-07T07:57:55;17.15;;;6.78;;
80320;SDS011;69633;47.066;15.450;2024-03-07T08:00:26;12.32;;;5.57;;
80320;SDS011;69633;47.066;15.450;2024-03-07T08:05:24;17.55;;;7.38;;
80320;SDS011;69633;47.066;15.450;2024-03-07T08:07:52;22.65;;;7.80;;
80320;SDS011;69633;47.066;15.450;2024-03-07T08:10:20;21.83;;;7.65;;
80320;SDS011;69633;47.066;15.450;2024-03-07T08:12:49;18.42;;;7.22;;
80320;SDS011;69633;47.066;15.450;2024-03-07T08:15:17;16.85;;;7.20;;
80320;SDS011;69633;47.066;15.450;2024-03-07T08:17:47;16.73;;;6.70;;
80320;SDS011;69633;47.066;15.450;2024-03-07T08:20:16;15.05;;;6.50;;
80320;SDS011;69633;47.066;15.450;2024-03-07T08:22:44;17.85;;;6.95;;
80320;SDS011;69633;47.066;15.450;2024-03-07T08:25:10;13.82;;;6.80;;
80320;SDS011;69633;47.066;15.450;2024-03-07T08:27:41;14.52;;;5.80;;
80320;SDS011;69633;47.066;15.450;2024-03-07T08:30:10;13.40;;;6.20;;
80320;SDS011;69633;47.066;15.450;2024-03-07T08:32:44;18.27;;;6.88;;
80320;SDS011;69633;47.066;15.450;2024-03-07T08:35:13;16.70;;;6.82;;
80320;SDS011;69633;47.066;15.450;2024-03-07T08:37:42;12.93;;;6.63;;
80320;SDS011;69633;47.066;15.450;2024-03-07T08:40:09;14.95;;;7.13;;
80320;SDS011;69633;47.066;15.450;2024-03-07T08:42:40;14.50;;;7.05;;
80320;SDS011;69633;47.066;15.450;2024-03-07T08:47:36;14.05;;;6.47;;
80320;SDS011;69633;47.066;15.450;2024-03-07T08:50:04;17.30;;;5.80;;
80320;SDS011;69633;47.066;15.450;2024-03-07T08:52:33;15.65;;;6.15;;
80320;SDS011;69633;47.066;15.450;2024-03-07T08:55:02;14.20;;;6.03;;
80320;SDS011;69633;47.066;15.450;2024-03-07T08:57:27;15.07;;;6.07;;
80320;SDS011;69633;47.066;15.450;2024-03-07T08:59:53;12.63;;;6.15;;
80320;SDS011;69633;47.066;15.450;2024-03-07T09:02:21;13.60;;;6.63;;
80320;SDS011;69633;47.066;15.450;2024-03-07T09:04:46;11.95;;;5.28;;
80320;SDS011;69633;47.066;15.450;2024-03-07T09:07:12;13.40;;;6.07;;
80320;SDS011;69633;47.066;15.450;2024-03-07T09:09:40;13.40;;;6.13;;
80320;SDS011;69633;47.066;15.450;2024-03-07T09:12:10;13.60;;;5.63;;
80320;SDS011;69633;47.066;15.450;2024-03-07T09:14:36;13.57;;;6.13;;
80320;SDS011;69633;47.066;15.450;2024-03-07T09:17:02;12.35;;;5.53;;
80320;SDS011;69633;47.066;15.450;2024-03-07T09:19:30;11.15;;;5.35;;
80320;SDS011;69633;47.066;15.450;2024-03-07T09:21:56;14.45;;;5.10;;
80320;SDS011;69633;47.066;15.450;2024-03-07T09:24:23;11.60;;;5.20;;
80320;SDS011;69633;47.066;15.450;2024-03-07T09:26:49;12.10;;;4.90;;
80320;SDS011;69633;47.066;15.450;2024-03-07T09:29:16;9.23;;;4.50;;
80320;SDS011;69633;47.066;15.450;2024-03-07T09:31:43;10.02;;;4.95;;
80320;SDS011;69633;47.066;15.450;2024-03-07T09:34:13;10.93;;;4.85;;
80320;SDS011;69633;47.066;15.450;2024-03-07T09:36:39;10.00;;;4.63;;
80320;SDS011;69633;47.066;15.450;2024-03-07T09:39:09;10.80;;;4.38;;
80320;SDS011;69633;47.066;15.450;2024-03-07T09:41:37;14.35;;;4.72;;
80320;SDS011;69633;47.066;15.450;2024-03-07T09:44:05;11.15;;;4.38;;
80320;SDS011;69633;47.066;15.450;2024-03-07T09:46:34;8.35;;;4.15;;
80320;SDS011;69633;47.066;15.450;2024-03-07T09:49:04;10.25;;;4.38;;
80320;SDS011;69633;47.066;15.450;2024-03-07T09:51:32;8.52;;;4.57;;
80320;SDS011;69633;47.066;15.450;2024-03-07T09:53:59;9.10;;;3.92;;
80320;SDS011;69633;47.066;15.450;2024-03-07T09:56:25;8.60;;;3.65;;
80320;SDS011;69633;47.066;15.450;2024-03-07T09:58:57;7.65;;;3.33;;
80320;SDS011;69633;47.066;15.450;2024-03-07T10:01:26;10.57;;;3.85;;
80320;SDS011;69633;47.066;15.450;2024-03-07T10:03:57;7.40;;;3.80;;
80320;SDS011;69633;47.066;15.450;2024-03-07T10:06:28;6.45;;;3.60;;
80320;SDS011;69633;47.066;15.450;2024-03-07T10:08:55;7.28;;;3.60;;
80320;SDS011;69633;47.066;15.450;2024-03-07T10:11:25;8.23;;;4.10;;
80320;SDS011;69633;47.066;15.450;2024-03-07T10:13:50;8.85;;;3.75;;
80320;SDS011;69633;47.066;15.450;2024-03-07T10:16:17;12.82;;;3.65;;
80320;SDS011;69633;47.066;15.450;2024-03-07T10:18:45;8.10;;;3.97;;
80320;SDS011;69633;47.066;15.450;2024-03-07T10:21:14;7.70;;;3.40;;
80320;SDS011;69633;47.066;15.450;2024-03-07T10:23:44;7.68;;;3.85;;
80320;SDS011;69633;47.066;15.450;2024-03-07T10:26:11;9.25;;;3.60;;
80320;SDS011;69633;47.066;15.450;2024-03-07T10:28:39;5.95;;;3.58;;
80320;SDS011;69633;47.066;15.450;2024-03-07T10:31:04;6.15;;;3.05;;
80320;SDS011;69633;47.066;15.450;2024-03-07T10:33:40;6.45;;;3.08;;
80320;SDS011;69633;47.066;15.450;2024-03-07T10:36:06;7.82;;;3.08;;
80320;SDS011;69633;47.066;15.450;2024-03-07T10:38:38;9.65;;;3.90;;
80320;SDS011;69633;47.066;15.450;2024-03-07T10:41:04;6.80;;;3.42;;
80320;SDS011;69633;47.066;15.450;2024-03-07T10:43:34;7.22;;;3.53;;
80320;SDS011;69633;47.066;15.450;2024-03-07T10:46:05;6.55;;;3.20;;
80320;SDS011;69633;47.066;15.450;2024-03-07T10:48:33;8.15;;;3.63;;
80320;SDS011;69633;47.066;15.450;2024-03-07T10:57:35;6.18;;;2.60;;
80320;SDS011;69633;47.066;15.450;2024-03-07T11:00:34;5.15;;;2.60;;
80320;SDS011;69633;47.066;15.450;2024-03-07T11:03:02;5.03;;;2.50;;
80320;SDS011;69633;47.066;15.450;2024-03-07T11:05:34;6.95;;;3.05;;
80320;SDS011;69633;47.066;15.450;2024-03-07T11:08:00;7.05;;;2.60;;
80320;SDS011;69633;47.066;15.450;2024-03-07T11:10:33;4.00;;;2.20;;
80320;SDS011;69633;47.066;15.450;2024-03-07T11:13:01;5.68;;;2.60;;
80320;SDS011;69633;47.066;15.450;2024-03-07T11:15:28;3.85;;;1.88;;
80320;SDS011;69633;47.066;15.450;2024-03-07T11:17:55;4.00;;;2.13;;
80320;SDS011;69633;47.066;15.450;2024-03-07T11:20:21;4.97;;;2.33;;
80320;SDS011;69633;47.066;15.450;2024-03-07T11:22:52;6.38;;;2.72;;
80320;SDS011;69633;47.066;15.450;2024-03-07T11:25:22;6.93;;;2.45;;
80320;SDS011;69633;47.066;15.450;2024-03-07T11:27:57;5.55;;;3.00;;
80320;SDS011;69633;47.066;15.450;2024-03-07T11:30:24;6.53;;;2.92;;
80320;SDS011;69633;47.066;15.450;2024-03-07T11:32:54;5.25;;;2.70;;
80320;SDS011;69633;47.066;15.450;2024-03-07T11:35:42;5.60;;;2.60;;
80320;SDS011;69633;47.066;15.450;2024-03-07T11:38:14;5.55;;;2.67;;
80320;SDS011;69633;47.066;15.450;2024-03-07T11:43:05;7.95;;;2.90;;
80320;SDS011;69633;47.066;15.450;2024-03-07T11:45:31;6.78;;;3.17;;
80320;SDS011;69633;47.066;15.450;2024-03-07T11:48:17;5.22;;;2.85;;
80320;SDS011;69633;47.066;15.450;2024-03-07T11:50:45;6.55;;;2.95;;
80320;SDS011;69633;47.066;15.450;2024-03-07T11:53:12;6.30;;;2.85;;
80320;SDS011;69633;47.066;15.450;2024-03-07T11:55:38;5.55;;;2.60;;
80320;SDS011;69633;47.066;15.450;2024-03-07T11:58:16;6.20;;;2.83;;
80320;SDS011;69633;47.066;15.450;2024-03-07T12:00:48;6.15;;;2.88;;
80320;SDS011;69633;47.066;15.450;2024-03-07T12:03:16;5.85;;;2.83;;
80320;SDS011;69633;47.066;15.450;2024-03-07T12:05:46;7.85;;;3.60;;
80320;SDS011;69633;47.066;15.450;2024-03-07T12:08:22;5.82;;;2.67;;
80320;SDS011;69633;47.066;15.450;2024-03-07T12:10:48;7.43;;;2.60;;
80320;SDS011;69633;47.066;15.450;2024-03-07T12:13:17;8.05;;;3.10;;
80320;SDS011;69633;47.066;15.450;2024-03-07T12:15:44;6.57;;;3.38;;
80320;SDS011;69633;47.066;15.450;2024-03-07T12:18:10;5.22;;;3.03;;
80320;SDS011;69633;47.066;15.450;2024-03-07T12:20:42;5.47;;;2.75;;
80320;SDS011;69633;47.066;15.450;2024-03-07T12:23:15;5.43;;;2.90;;
80320;SDS011;69633;47.066;15.450;2024-03-07T12:25:44;7.43;;;3.15;;
80320;SDS011;69633;47.066;15.450;2024-03-07T12:28:14;5.90;;;3.10;;
80320;SDS011;69633;47.066;15.450;2024-03-07T12:33:12;6.68;;;3.10;;
80320;SDS011;69633;47.066;15.450;2024-03-07T12:35:46;6.20;;;2.85;;
80320;SDS011;69633;47.066;15.450;2024-03-07T12:38:15;5.15;;;2.70;;
80320;SDS011;69633;47.066;15.450;2024-03-07T12:40:42;6.18;;;3.05;;
80320;SDS011;69633;47.066;15.450;2024-03-07T12:43:19;5.30;;;2.95;;
80320;SDS011;69633;47.066;15.450;2024-03-07T12:48:30;4.75;;;2.38;;
80320;SDS011;69633;47.066;15.450;2024-03-07T12:50:56;6.57;;;3.20;;
80320;SDS011;69633;47.066;15.450;2024-03-07T12:53:22;6.75;;;3.03;;
80320;SDS011;69633;47.066;15.450;2024-03-07T12:55:50;8.85;;;3.58;;
80320;SDS011;69633;47.066;15.450;2024-03-07T12:58:17;6.05;;;2.97;;
80320;SDS011;69633;47.066;15.450;2024-03-07T13:00:55;6.15;;;3.13;;
80320;SDS011;69633;47.066;15.450;2024-03-07T13:03:22;5.35;;;2.65;;
80320;SDS011;69633;47.066;15.450;2024-03-07T13:05:56;5.35;;;2.70;;
80320;SDS011;69633;47.066;15.450;2024-03-07T13:08:41;6.15;;;2.97;;
80320;SDS011;69633;47.066;15.450;2024-03-07T13:11:06;5.15;;;3.05;;
80320;SDS011;69633;47.066;15.450;2024-03-07T13:13:36;7.72;;;3.42;;
80320;SDS011;69633;47.066;15.450;2024-03-07T13:16:01;6.85;;;3.10;;
80320;SDS011;69633;47.066;15.450;2024-03-07T13:18:27;7.55;;;3.20;;
80320;SDS011;69633;47.066;15.450;2024-03-07T13:20:52;5.72;;;3.38;;
80320;SDS011;69633;47.066;15.450;2024-03-07T13:23:19;5.97;;;3.10;;
80320;SDS011;69633;47.066;15.450;2024-03-07T13:25:45;7.47;;;2.85;;
80320;SDS011;69633;47.066;15.450;2024-03-07T13:28:14;5.05;;;2.85;;
80320;SDS011;69633;47.066;15.450;2024-03-07T13:30:49;6.32;;;3.55;;
80320;SDS011;69633;47.066;15.450;2024-03-07T13:33:17;6.70;;;2.80;;
80320;SDS011;69633;47.066;15.450;2024-03-07T13:35:43;6.05;;;2.38;;
80320;SDS011;69633;47.066;15.450;2024-03-07T13:38:09;4.82;;;2.47;;
80320;SDS011;69633;47.066;15.450;2024-03-07T13:40:34;5.35;;;2.85;;
80320;SDS011;69633;47.066;15.450;2024-03-07T13:43:03;4.85;;;2.70;;
80320;SDS011;69633;47.066;15.450;2024-03-07T13:45:30;8.52;;;3.10;;
80320;SDS011;69633;47.066;15.450;2024-03-07T13:48:02;5.55;;;2.63;;
80320;SDS011;69633;47.066;15.450;2024-03-07T13:50:30;7.47;;;2.75;;
80320;SDS011;69633;47.066;15.450;2024-03-07T13:52:58;5.05;;;2.78;;
80320;SDS011;69633;47.066;15.450;2024-03-07T13:55:39;6.18;;;3.05;;
80320;SDS011;69633;47.066;15.450;2024-03-07T14:29:54;6.07;;;2.75;;
80320;SDS011;69633;47.066;15.450;2024-03-07T14:32:24;5.47;;;2.80;;
80320;SDS011;69633;47.066;15.450;2024-03-07T14:37:49;7.20;;;2.67;;
80320;SDS011;69633;47.066;15.450;2024-03-07T14:40:19;4.90;;;2.72;;
80320;SDS011;69633;47.066;15.450;2024-03-07T14:42:47;6.07;;;3.15;;
80320;SDS011;69633;47.066;15.450;2024-03-07T14:45:30;5.75;;;2.80;;
80320;SDS011;69633;47.066;15.450;2024-03-07T14:48:01;5.10;;;2.40;;
80320;SDS011;69633;47.066;15.450;2024-03-07T14:50:28;5.57;;;3.08;;
80320;SDS011;69633;47.066;15.450;2024-03-07T14:52:57;7.35;;;2.97;;
80320;SDS011;69633;47.066;15.450;2024-03-07T14:55:24;4.93;;;2.80;;
80320;SDS011;69633;47.066;15.450;2024-03-07T14:57:51;4.80;;;2.75;;
80320;SDS011;69633;47.066;15.450;2024-03-07T15:00:18;7.95;;;3.03;;
80320;SDS011;69633;47.066;15.450;2024-03-07T15:02:52;5.43;;;3.10;;
80320;SDS011;69633;47.066;15.450;2024-03-07T15:05:25;8.75;;;2.95;;
80320;SDS011;69633;47.066;15.450;2024-03-07T15:07:51;7.10;;;2.90;;
80320;SDS011;69633;47.066;15.450;2024-03-07T15:10:36;5.75;;;2.80;;
80320;SDS011;69633;47.066;15.450;2024-03-07T15:13:06;6.22;;;3.30;;
80320;SDS011;69633;47.066;15.450;2024-03-07T15:15:33;5.45;;;2.83;;
80320;SDS011;69633;47.066;15.450;2024-03-07T15:17:59;5.20;;;2.63;;
80320;SDS011;69633;47.066;15.450;2024-03-07T15:20:28;5.22;;;2.63;;
80320;SDS011;69633;47.066;15.450;2024-03-07T15:22:58;6.22;;;2.65;;
80320;SDS011;69633;47.066;15.450;2024-03-07T15:25:25;4.80;;;2.20;;
80320;SDS011;69633;47.066;15.450;2024-03-07T15:27:56;5.38;;;2.65;;